Lexington, KY (40575)

1:45 AM EDT on August 31, 2015 (GMT -0400)
Eastland | | Change Station
CLOSE
Current Station
Personal Weather Station
Location: Lexington, KY
Elevation: 988 ft
Nearby Weather Stations

Elev 988 ft 38.06 °N, 84.43 °W | Updated 7 minutes ago

Partly Cloudy
Partly Cloudy
68.9 °F
Feels Like 68.9 °F
N
0.0
Wind Variable Wind from West

Today
High -- | Low -- °F
--% Chance of Precip.
Yesterday
High -- | Low -- °F
Precip. -- in
7:06 AM 8:09 PM
Full, 97% visible
Pressure 30.08 in
Visibility 10.0 miles
Clouds Few 11000 ft
Dew Point 64 °F
Humidity 85%
Rainfall 0.00 in
Snow Depth Not available.
UV 0 out of 12
Pollen 8.60 out of 12
Air Quality Not available.
Flu Activity Not available.
METAR KLEX 310454Z AUTO 16004KT 10SM FEW110 22/18 A3011 RMK AO2 RAE09 SLP185 P0000 T02220183 403000194 $
Pressure 30.08 in
Visibility 10.0 miles
Clouds Few 11000 ft
Dew Point 64 °F
Humidity 85%
Rainfall 0.00 in
Snow Depth Not available.
UV 0 out of 12
Pollen 8.60 out of 12
Air Quality Not available.
Flu Activity Not available.
METAR KLEX 310454Z AUTO 16004KT 10SM FEW110 22/18 A3011 RMK AO2 RAE09 SLP185 P0000 T02220183 403000194 $

10-Day Weather Forecast

×

Almanac

Astronomy

Aug. 31, 2015 Rise Set
Actual Time
Civil Twilight
Nautical Twilight
Astronomical Twilight
Moon
Length of Visible Light
Length of Day
Tomorrow will be .
, % of the Moon is Illuminated

Today's Extremes

State Highs State Lows

Community

WunderPhotos

Upload Photos

1,851,215 photos uploaded!

WunderBlogs® & News

Nearby

Air Quality

  Air Quality AQ Index Pollutant
Not available.

Snow Depth

Station Depth Elevation

Earthquake Activity

City Distance Mag. Time & Date
Minimum magnitude displayed is 2.5.

Coastal Water Temperatures

Place Temperature

Stations

Nearby Weather Stations

Station Location Temp. Windchill Dew Point Humidity Wind Precip. Elev Updated Type